sensor_id;sensor_type;location;lat;lon;timestamp;pressure;altitude;pressure_sealevel;temperature;humidity
74975;BME280;68459;50.836;19.138;2023-04-03T00:02:33;99104.84;;;1.99;77.82
74975;BME280;68459;50.836;19.138;2023-04-03T00:05:37;99099.34;;;2.01;77.67
74975;BME280;68459;50.836;19.138;2023-04-03T00:08:41;99102.81;;;2.01;77.94
74975;BME280;68459;50.836;19.138;2023-04-03T00:11:45;99112.13;;;1.97;77.60
74975;BME280;68459;50.836;19.138;2023-04-03T00:14:50;99109.78;;;1.94;77.55
74975;BME280;68459;50.836;19.138;2023-04-03T00:17:55;99112.44;;;1.94;77.38
74975;BME280;68459;50.836;19.138;2023-04-03T00:20:59;99111.91;;;1.91;77.68
74975;BME280;68459;50.836;19.138;2023-04-03T00:24:03;99103.78;;;1.92;77.56
74975;BME280;68459;50.836;19.138;2023-04-03T00:27:07;99117.75;;;1.94;78.08
74975;BME280;68459;50.836;19.138;2023-04-03T00:30:16;99115.94;;;1.95;77.59
74975;BME280;68459;50.836;19.138;2023-04-03T00:33:21;99121.72;;;1.90;77.52
74975;BME280;68459;50.836;19.138;2023-04-03T00:36:26;99116.72;;;1.87;77.61
74975;BME280;68459;50.836;19.138;2023-04-03T00:39:30;99116.72;;;1.87;78.01
74975;BME280;68459;50.836;19.138;2023-04-03T00:42:35;99112.41;;;1.86;77.93
74975;BME280;68459;50.836;19.138;2023-04-03T00:45:42;99118.88;;;1.84;77.96
74975;BME280;68459;50.836;19.138;2023-04-03T00:48:49;99117.03;;;1.84;77.61
74975;BME280;68459;50.836;19.138;2023-04-03T00:51:53;99125.31;;;1.81;77.65
74975;BME280;68459;50.836;19.138;2023-04-03T00:55:02;99124.66;;;1.79;77.69
74975;BME280;68459;50.836;19.138;2023-04-03T00:58:11;99118.66;;;1.77;77.48
74975;BME280;68459;50.836;19.138;2023-04-03T01:01:22;99126.09;;;1.73;77.23
74975;BME280;68459;50.836;19.138;2023-04-03T01:04:30;99121.72;;;1.64;77.49
74975;BME280;68459;50.836;19.138;2023-04-03T01:07:36;99124.19;;;1.58;78.03
74975;BME280;68459;50.836;19.138;2023-04-03T01:10:40;99126.00;;;1.57;77.93
74975;BME280;68459;50.836;19.138;2023-04-03T01:13:44;99132.75;;;1.52;77.53
74975;BME280;68459;50.836;19.138;2023-04-03T01:16:53;99135.97;;;1.37;77.05
74975;BME280;68459;50.836;19.138;2023-04-03T01:20:23;99136.97;;;1.19;77.14
74975;BME280;68459;50.836;19.138;2023-04-03T01:23:58;99132.63;;;1.00;77.74
74975;BME280;68459;50.836;19.138;2023-04-03T01:27:11;99140.00;;;0.88;77.47
74975;BME280;68459;50.836;19.138;2023-04-03T01:30:17;99143.00;;;0.76;77.28
74975;BME280;68459;50.836;19.138;2023-04-03T01:33:25;99141.25;;;0.66;77.97
74975;BME280;68459;50.836;19.138;2023-04-03T01:36:30;99144.22;;;0.63;78.09
74975;BME280;68459;50.836;19.138;2023-04-03T01:39:35;99143.50;;;0.61;77.63
74975;BME280;68459;50.836;19.138;2023-04-03T01:42:39;99145.47;;;0.59;77.99
74975;BME280;68459;50.836;19.138;2023-04-03T01:45:44;99138.50;;;0.58;77.87
74975;BME280;68459;50.836;19.138;2023-04-03T01:48:50;99138.22;;;0.61;77.70
74975;BME280;68459;50.836;19.138;2023-04-03T01:51:54;99148.22;;;0.67;77.93
74975;BME280;68459;50.836;19.138;2023-04-03T01:54:58;99149.59;;;0.71;77.79
74975;BME280;68459;50.836;19.138;2023-04-03T01:58:02;99154.22;;;0.69;77.51
74975;BME280;68459;50.836;19.138;2023-04-03T02:01:05;99153.84;;;0.64;77.46
74975;BME280;68459;50.836;19.138;2023-04-03T02:04:12;99161.94;;;0.63;77.64
74975;BME280;68459;50.836;19.138;2023-04-03T02:07:16;99166.28;;;0.64;77.34
74975;BME280;68459;50.836;19.138;2023-04-03T02:10:20;99169.91;;;0.63;77.24
74975;BME280;68459;50.836;19.138;2023-04-03T02:13:23;99166.44;;;0.62;77.60
74975;BME280;68459;50.836;19.138;2023-04-03T02:16:27;99169.78;;;0.64;77.30
74975;BME280;68459;50.836;19.138;2023-04-03T02:19:34;99171.88;;;0.61;77.46
74975;BME280;68459;50.836;19.138;2023-04-03T02:22:38;99172.16;;;0.58;77.53
74975;BME280;68459;50.836;19.138;2023-04-03T02:25:42;99169.66;;;0.56;77.34
74975;BME280;68459;50.836;19.138;2023-04-03T02:28:46;99172.63;;;0.53;77.26
74975;BME280;68459;50.836;19.138;2023-04-03T02:31:49;99184.38;;;0.51;76.76
74975;BME280;68459;50.836;19.138;2023-04-03T02:34:57;99173.19;;;0.47;76.92
74975;BME280;68459;50.836;19.138;2023-04-03T02:38:02;99176.59;;;0.40;77.04
74975;BME280;68459;50.836;19.138;2023-04-03T02:41:08;99179.97;;;0.32;77.70
74975;BME280;68459;50.836;19.138;2023-04-03T02:44:13;99181.53;;;0.25;77.19
74975;BME280;68459;50.836;19.138;2023-04-03T02:47:18;99172.19;;;0.21;76.91
74975;BME280;68459;50.836;19.138;2023-04-03T02:50:23;99180.16;;;0.21;77.48
74975;BME280;68459;50.836;19.138;2023-04-03T02:53:28;99183.50;;;0.23;76.89
74975;BME280;68459;50.836;19.138;2023-04-03T02:56:33;99188.81;;;0.23;77.66
74975;BME280;68459;50.836;19.138;2023-04-03T02:59:37;99187.81;;;0.24;77.04
74975;BME280;68459;50.836;19.138;2023-04-03T03:02:44;99185.16;;;0.24;76.66
74975;BME280;68459;50.836;19.138;2023-04-03T03:05:49;99186.16;;;0.23;77.25
74975;BME280;68459;50.836;19.138;2023-04-03T03:08:53;99190.75;;;0.21;77.75
74975;BME280;68459;50.836;19.138;2023-04-03T03:11:57;99189.78;;;0.22;77.15
74975;BME280;68459;50.836;19.138;2023-04-03T03:15:01;99192.44;;;0.22;77.34
74975;BME280;68459;50.836;19.138;2023-04-03T03:18:05;99193.41;;;0.21;77.01
74975;BME280;68459;50.836;19.138;2023-04-03T03:21:10;99190.75;;;0.21;77.09
74975;BME280;68459;50.836;19.138;2023-04-03T03:24:14;99200.81;;;0.17;76.87
74975;BME280;68459;50.836;19.138;2023-04-03T03:27:18;99190.66;;;0.13;76.90
74975;BME280;68459;50.836;19.138;2023-04-03T03:30:22;99199.59;;;0.12;76.71
74975;BME280;68459;50.836;19.138;2023-04-03T03:33:26;99197.38;;;0.07;76.92
74975;BME280;68459;50.836;19.138;2023-04-03T03:36:31;99206.44;;;0.05;76.83
74975;BME280;68459;50.836;19.138;2023-04-03T03:39:36;99197.91;;;0.01;76.90
74975;BME280;68459;50.836;19.138;2023-04-03T03:42:40;99202.69;;;-0.03;76.70
74975;BME280;68459;50.836;19.138;2023-04-03T03:45:44;99204.78;;;-0.06;76.87
74975;BME280;68459;50.836;19.138;2023-04-03T03:48:53;99209.41;;;-0.08;76.50
74975;BME280;68459;50.836;19.138;2023-04-03T03:51:58;99207.56;;;-0.08;76.77
74975;BME280;68459;50.836;19.138;2023-04-03T03:55:02;99209.41;;;-0.08;76.53
74975;BME280;68459;50.836;19.138;2023-04-03T03:58:09;99216.13;;;-0.14;76.44
74975;BME280;68459;50.836;19.138;2023-04-03T04:01:13;99222.66;;;-0.18;76.73
74975;BME280;68459;50.836;19.138;2023-04-03T04:04:21;99221.00;;;-0.19;76.15
74975;BME280;68459;50.836;19.138;2023-04-03T04:07:26;99221.97;;;-0.20;76.33
74975;BME280;68459;50.836;19.138;2023-04-03T04:10:32;99225.59;;;-0.21;76.28
74975;BME280;68459;50.836;19.138;2023-04-03T04:13:37;99227.56;;;-0.23;76.71
74975;BME280;68459;50.836;19.138;2023-04-03T04:16:42;99237.44;;;-0.25;76.59
74975;BME280;68459;50.836;19.138;2023-04-03T04:19:51;99235.38;;;-0.31;76.33
74975;BME280;68459;50.836;19.138;2023-04-03T04:22:56;99237.19;;;-0.31;76.42
74975;BME280;68459;50.836;19.138;2023-04-03T04:26:01;99238.72;;;-0.29;76.61
74975;BME280;68459;50.836;19.138;2023-04-03T04:29:09;99244.56;;;-0.25;76.60
74975;BME280;68459;50.836;19.138;2023-04-03T04:32:14;99241.63;;;-0.22;76.58
74975;BME280;68459;50.836;19.138;2023-04-03T04:35:17;99245.97;;;-0.21;76.47
74975;BME280;68459;50.836;19.138;2023-04-03T04:38:25;99244.84;;;-0.19;76.41
74975;BME280;68459;50.836;19.138;2023-04-03T04:41:29;99248.47;;;-0.20;76.30
74975;BME280;68459;50.836;19.138;2023-04-03T04:44:34;99259.34;;;-0.23;76.35
74975;BME280;68459;50.836;19.138;2023-04-03T04:47:38;99259.63;;;-0.26;76.35
74975;BME280;68459;50.836;19.138;2023-04-03T04:50:42;99257.16;;;-0.27;76.08
74975;BME280;68459;50.836;19.138;2023-04-03T04:53:48;99258.78;;;-0.26;76.30
74975;BME280;68459;50.836;19.138;2023-04-03T04:56:54;99266.47;;;-0.23;75.90
74975;BME280;68459;50.836;19.138;2023-04-03T04:59:58;99261.31;;;-0.25;76.44
74975;BME280;68459;50.836;19.138;2023-04-03T05:03:02;99256.97;;;-0.26;76.00
74975;BME280;68459;50.836;19.138;2023-04-03T05:06:06;99257.81;;;-0.25;75.92
74975;BME280;68459;50.836;19.138;2023-04-03T05:09:13;99268.28;;;-0.24;76.16
74975;BME280;68459;50.836;19.138;2023-04-03T05:12:18;99270.09;;;-0.24;75.86
74975;BME280;68459;50.836;19.138;2023-04-03T05:15:28;99271.78;;;-0.23;75.29
74975;BME280;68459;50.836;19.138;2023-04-03T05:18:32;99270.78;;;-0.22;75.64
74975;BME280;68459;50.836;19.138;2023-04-03T05:21:42;99275.25;;;-0.23;75.35
74975;BME280;68459;50.836;19.138;2023-04-03T05:24:50;99275.97;;;-0.21;75.86
74975;BME280;68459;50.836;19.138;2023-04-03T05:27:56;99279.59;;;-0.22;75.74
74975;BME280;68459;50.836;19.138;2023-04-03T05:31:00;99283.34;;;-0.24;75.44
74975;BME280;68459;50.836;19.138;2023-04-03T05:34:09;99282.66;;;-0.26;75.37
74975;BME280;68459;50.836;19.138;2023-04-03T05:37:14;99293.09;;;-0.25;75.21
74975;BME280;68459;50.836;19.138;2023-04-03T05:40:19;99286.13;;;-0.26;75.78
74975;BME280;68459;50.836;19.138;2023-04-03T05:43:26;99296.72;;;-0.26;75.62
74975;BME280;68459;50.836;19.138;2023-04-03T05:46:31;99294.78;;;-0.24;75.64
74975;BME280;68459;50.836;19.138;2023-04-03T05:49:38;99296.47;;;-0.23;75.27
74975;BME280;68459;50.836;19.138;2023-04-03T05:52:46;99302.31;;;-0.19;75.41
74975;BME280;68459;50.836;19.138;2023-04-03T05:55:54;99300.38;;;-0.17;75.20
74975;BME280;68459;50.836;19.138;2023-04-03T05:58:58;99304.84;;;-0.18;75.58
74975;BME280;68459;50.836;19.138;2023-04-03T06:02:02;99311.56;;;-0.14;75.18
74975;BME280;68459;50.836;19.138;2023-04-03T06:05:07;99312.78;;;-0.18;74.87
74975;BME280;68459;50.836;19.138;2023-04-03T06:08:13;99311.38;;;-0.22;74.91
74975;BME280;68459;50.836;19.138;2023-04-03T06:11:18;99309.56;;;-0.21;74.76
74975;BME280;68459;50.836;19.138;2023-04-03T06:14:23;99324.50;;;-0.20;74.71
74975;BME280;68459;50.836;19.138;2023-04-03T06:17:28;99315.72;;;-0.21;74.79
74975;BME280;68459;50.836;19.138;2023-04-03T06:20:32;99318.50;;;-0.22;74.98
74975;BME280;68459;50.836;19.138;2023-04-03T06:23:36;99328.25;;;-0.23;74.90
74975;BME280;68459;50.836;19.138;2023-04-03T06:26:41;99319.75;;;-0.26;74.99
74975;BME280;68459;50.836;19.138;2023-04-03T06:29:45;99322.97;;;-0.23;74.94
74975;BME280;68459;50.836;19.138;2023-04-03T06:32:50;99332.47;;;-0.20;74.93
74975;BME280;68459;50.836;19.138;2023-04-03T06:35:58;99329.41;;;-0.16;74.83
74975;BME280;68459;50.836;19.138;2023-04-03T06:39:02;99332.59;;;-0.12;74.27
74975;BME280;68459;50.836;19.138;2023-04-03T06:42:07;99335.41;;;-0.04;74.51
74975;BME280;68459;50.836;19.138;2023-04-03T06:45:20;99345.56;;;0.00;74.93
74975;BME280;68459;50.836;19.138;2023-04-03T06:48:24;99341.94;;;0.02;74.11
74975;BME280;68459;50.836;19.138;2023-04-03T06:51:29;99344.91;;;-0.02;74.05
74975;BME280;68459;50.836;19.138;2023-04-03T06:54:34;99347.25;;;0.02;73.94
74975;BME280;68459;50.836;19.138;2023-04-03T06:57:39;99355.91;;;0.04;73.95
74975;BME280;68459;50.836;19.138;2023-04-03T07:00:43;99354.66;;;0.08;74.04
74975;BME280;68459;50.836;19.138;2023-04-03T07:03:47;99350.06;;;0.10;74.06
74975;BME280;68459;50.836;19.138;2023-04-03T07:06:52;99351.41;;;0.14;73.69
74975;BME280;68459;50.836;19.138;2023-04-03T07:09:56;99360.66;;;0.19;73.79
74975;BME280;68459;50.836;19.138;2023-04-03T07:13:02;99359.13;;;0.26;73.46
74975;BME280;68459;50.836;19.138;2023-04-03T07:16:07;99363.72;;;0.34;73.56
74975;BME280;68459;50.836;19.138;2023-04-03T07:19:12;99370.41;;;0.38;73.31
74975;BME280;68459;50.836;19.138;2023-04-03T07:22:16;99369.13;;;0.42;73.39
74975;BME280;68459;50.836;19.138;2023-04-03T07:25:20;99369.56;;;0.47;73.52
74975;BME280;68459;50.836;19.138;2023-04-03T07:28:25;99381.56;;;0.51;72.99
74975;BME280;68459;50.836;19.138;2023-04-03T07:31:29;99388.81;;;0.59;72.80
74975;BME280;68459;50.836;19.138;2023-04-03T07:34:33;99380.44;;;0.63;71.79
74975;BME280;68459;50.836;19.138;2023-04-03T07:37:37;99377.63;;;0.65;72.27
74975;BME280;68459;50.836;19.138;2023-04-03T07:40:45;99384.88;;;0.73;72.65
74975;BME280;68459;50.836;19.138;2023-04-03T07:43:51;99377.72;;;0.83;71.79
74975;BME280;68459;50.836;19.138;2023-04-03T07:46:55;99376.31;;;0.88;72.60
74975;BME280;68459;50.836;19.138;2023-04-03T07:49:59;99381.19;;;0.93;70.87
74975;BME280;68459;50.836;19.138;2023-04-03T07:53:03;99377.09;;;0.98;70.98
74975;BME280;68459;50.836;19.138;2023-04-03T07:56:08;99374.59;;;1.06;70.81
74975;BME280;68459;50.836;19.138;2023-04-03T07:59:13;99372.44;;;1.20;69.69
74975;BME280;68459;50.836;19.138;2023-04-03T08:02:17;99377.16;;;1.26;70.91
74975;BME280;68459;50.836;19.138;2023-04-03T08:05:21;99387.34;;;1.30;69.54
74975;BME280;68459;50.836;19.138;2023-04-03T08:08:25;99389.00;;;1.31;69.49
74975;BME280;68459;50.836;19.138;2023-04-03T08:11:31;99393.91;;;1.26;69.17
74975;BME280;68459;50.836;19.138;2023-04-03T08:14:36;99382.50;;;1.16;67.49
74975;BME280;68459;50.836;19.138;2023-04-03T08:17:40;99380.84;;;1.15;69.48
74975;BME280;68459;50.836;19.138;2023-04-03T08:20:44;99385.84;;;1.18;69.19
74975;BME280;68459;50.836;19.138;2023-04-03T08:23:49;99395.88;;;1.24;68.21
74975;BME280;68459;50.836;19.138;2023-04-03T08:26:54;99389.44;;;1.27;67.08
74975;BME280;68459;50.836;19.138;2023-04-03T08:29:59;99392.50;;;1.32;67.82
74975;BME280;68459;50.836;19.138;2023-04-03T08:33:03;99383.34;;;1.44;68.41
74975;BME280;68459;50.836;19.138;2023-04-03T08:36:17;99387.03;;;1.61;67.86
74975;BME280;68459;50.836;19.138;2023-04-03T08:39:23;99389.78;;;1.69;67.53
74975;BME280;68459;50.836;19.138;2023-04-03T08:42:36;99399.53;;;1.78;67.13
74975;BME280;68459;50.836;19.138;2023-04-03T08:45:55;99401.69;;;1.92;66.71
74975;BME280;68459;50.836;19.138;2023-04-03T08:49:00;99401.41;;;2.13;66.51
74975;BME280;68459;50.836;19.138;2023-04-03T08:52:09;99400.00;;;2.27;66.07
74975;BME280;68459;50.836;19.138;2023-04-03T08:55:22;99396.44;;;2.36;65.75
74975;BME280;68459;50.836;19.138;2023-04-03T08:58:33;99395.75;;;2.52;64.02
74975;BME280;68459;50.836;19.138;2023-04-03T09:01:47;99398.31;;;2.61;65.15
74975;BME280;68459;50.836;19.138;2023-04-03T09:04:52;99401.66;;;2.63;63.65
74975;BME280;68459;50.836;19.138;2023-04-03T09:07:59;99403.41;;;2.55;64.19
74975;BME280;68459;50.836;19.138;2023-04-03T09:11:16;99399.25;;;2.52;62.91
74975;BME280;68459;50.836;19.138;2023-04-03T09:14:29;99409.56;;;2.55;63.79
74975;BME280;68459;50.836;19.138;2023-04-03T09:17:52;99402.28;;;2.57;63.71
74975;BME280;68459;50.836;19.138;2023-04-03T09:21:09;99407.03;;;2.71;64.77
74975;BME280;68459;50.836;19.138;2023-04-03T09:24:23;99404.28;;;2.81;63.69
74975;BME280;68459;50.836;19.138;2023-04-03T09:27:27;99404.19;;;2.91;63.58
74975;BME280;68459;50.836;19.138;2023-04-03T09:30:32;99397.91;;;3.00;63.60
74975;BME280;68459;50.836;19.138;2023-04-03T09:33:38;99404.34;;;3.15;63.25
74975;BME280;68459;50.836;19.138;2023-04-03T09:36:44;99400.78;;;3.32;63.31
74975;BME280;68459;50.836;19.138;2023-04-03T09:39:51;99405.72;;;3.61;61.96
74975;BME280;68459;50.836;19.138;2023-04-03T09:42:59;99406.13;;;3.82;60.32
74975;BME280;68459;50.836;19.138;2023-04-03T09:46:32;99409.69;;;3.99;57.46
74975;BME280;68459;50.836;19.138;2023-04-03T09:49:41;99398.81;;;4.01;60.25
74975;BME280;68459;50.836;19.138;2023-04-03T09:52:46;99413.84;;;3.93;59.88
74975;BME280;68459;50.836;19.138;2023-04-03T09:55:52;99408.97;;;3.81;58.53
74975;BME280;68459;50.836;19.138;2023-04-03T09:59:13;99401.25;;;3.70;57.16
74975;BME280;68459;50.836;19.138;2023-04-03T10:02:23;99410.25;;;3.69;57.72
74975;BME280;68459;50.836;19.138;2023-04-03T10:05:38;99408.44;;;3.77;59.84
74975;BME280;68459;50.836;19.138;2023-04-03T10:08:43;99405.34;;;3.98;60.89
74975;BME280;68459;50.836;19.138;2023-04-03T10:12:04;99411.06;;;4.11;59.23
74975;BME280;68459;50.836;19.138;2023-04-03T10:15:12;99411.41;;;4.41;59.87
74975;BME280;68459;50.836;19.138;2023-04-03T10:18:29;99416.78;;;4.65;57.80
74975;BME280;68459;50.836;19.138;2023-04-03T10:21:47;99413.94;;;4.75;57.88
74975;BME280;68459;50.836;19.138;2023-04-03T10:25:03;99411.09;;;4.68;57.27
74975;BME280;68459;50.836;19.138;2023-04-03T10:28:18;99404.59;;;4.79;58.71
74975;BME280;68459;50.836;19.138;2023-04-03T10:31:34;99412.06;;;4.99;58.42
74975;BME280;68459;50.836;19.138;2023-04-03T10:34:51;99410.50;;;5.21;57.20
74975;BME280;68459;50.836;19.138;2023-04-03T10:38:16;99404.63;;;5.34;54.25
74975;BME280;68459;50.836;19.138;2023-04-03T10:41:34;99408.34;;;5.25;54.12
74975;BME280;68459;50.836;19.138;2023-04-03T10:45:04;99399.81;;;5.21;53.00
74975;BME280;68459;50.836;19.138;2023-04-03T10:48:33;99414.03;;;5.30;55.14
74975;BME280;68459;50.836;19.138;2023-04-03T10:51:50;99404.25;;;5.53;55.06
74975;BME280;68459;50.836;19.138;2023-04-03T10:55:13;99398.84;;;5.61;56.87
74975;BME280;68459;50.836;19.138;2023-04-03T10:58:31;99417.50;;;5.78;56.52
74975;BME280;68459;50.836;19.138;2023-04-03T11:01:41;99416.50;;;5.79;56.80
74975;BME280;68459;50.836;19.138;2023-04-03T11:04:50;99411.94;;;5.87;56.63
74975;BME280;68459;50.836;19.138;2023-04-03T11:08:04;99417.97;;;5.97;55.61
74975;BME280;68459;50.836;19.138;2023-04-03T11:11:19;99415.31;;;5.89;54.59
74975;BME280;68459;50.836;19.138;2023-04-03T11:14:27;99413.97;;;5.85;56.38
74975;BME280;68459;50.836;19.138;2023-04-03T11:17:36;99421.91;;;5.70;51.45
74975;BME280;68459;50.836;19.138;2023-04-03T11:20:53;99408.81;;;5.84;54.89
74975;BME280;68459;50.836;19.138;2023-04-03T11:24:11;99392.28;;;6.11;55.37
74975;BME280;68459;50.836;19.138;2023-04-03T11:27:27;99403.66;;;6.36;55.30
74975;BME280;68459;50.836;19.138;2023-04-03T11:30:45;99409.84;;;6.59;54.76
74975;BME280;68459;50.836;19.138;2023-04-03T11:34:08;99412.22;;;6.31;53.47
74975;BME280;68459;50.836;19.138;2023-04-03T11:37:28;99403.94;;;6.41;54.60
74975;BME280;68459;50.836;19.138;2023-04-03T11:40:38;99399.59;;;6.63;53.31
74975;BME280;68459;50.836;19.138;2023-04-03T11:43:56;99399.00;;;6.75;51.99
74975;BME280;68459;50.836;19.138;2023-04-03T11:47:03;99395.56;;;7.04;54.49
74975;BME280;68459;50.836;19.138;2023-04-03T11:50:31;99383.16;;;7.47;53.56
74975;BME280;68459;50.836;19.138;2023-04-03T11:53:43;99401.03;;;7.55;53.01
74975;BME280;68459;50.836;19.138;2023-04-03T11:56:47;99409.19;;;7.32;52.97
74975;BME280;68459;50.836;19.138;2023-04-03T11:59:53;99402.69;;;7.56;53.36
74975;BME280;68459;50.836;19.138;2023-04-03T12:02:57;99401.06;;;7.91;53.08
74975;BME280;68459;50.836;19.138;2023-04-03T12:10:01;99398.31;;;8.35;51.17
74975;BME280;68459;50.836;19.138;2023-04-03T12:13:32;99406.41;;;8.06;51.87
74975;BME280;68459;50.836;19.138;2023-04-03T12:16:45;99391.84;;;8.15;49.37
74975;BME280;68459;50.836;19.138;2023-04-03T12:19:51;99397.53;;;8.63;52.35
74975;BME280;68459;50.836;19.138;2023-04-03T12:23:07;99400.06;;;9.20;49.33
74975;BME280;68459;50.836;19.138;2023-04-03T12:26:21;99405.75;;;9.04;47.96
74975;BME280;68459;50.836;19.138;2023-04-03T12:29:46;99400.84;;;9.14;49.75
74975;BME280;68459;50.836;19.138;2023-04-03T12:33:22;99390.34;;;10.01;47.90
74975;BME280;68459;50.836;19.138;2023-04-03T12:36:40;99393.19;;;10.47;44.32
74975;BME280;68459;50.836;19.138;2023-04-03T12:40:01;99392.81;;;10.83;49.23
74975;BME280;68459;50.836;19.138;2023-04-03T12:43:35;99392.22;;;15.40;41.52
74975;BME280;68459;50.836;19.138;2023-04-03T12:46:50;99394.41;;;20.11;42.30
74975;BME280;68459;50.836;19.138;2023-04-03T12:49:57;99398.22;;;22.43;37.65
74975;BME280;68459;50.836;19.138;2023-04-03T12:53:05;99400.63;;;25.00;36.07
74975;BME280;68459;50.836;19.138;2023-04-03T12:56:20;99403.25;;;26.30;33.39
74975;BME280;68459;50.836;19.138;2023-04-03T12:59:26;99401.09;;;23.98;34.37
74975;BME280;68459;50.836;19.138;2023-04-03T13:02:32;99408.38;;;21.02;37.45
74975;BME280;68459;50.836;19.138;2023-04-03T13:05:44;99405.47;;;23.80;34.33
74975;BME280;68459;50.836;19.138;2023-04-03T13:08:50;99401.66;;;26.65;30.34
74975;BME280;68459;50.836;19.138;2023-04-03T13:11:58;99400.25;;;29.27;29.53
74975;BME280;68459;50.836;19.138;2023-04-03T13:15:13;99395.81;;;29.34;23.57
74975;BME280;68459;50.836;19.138;2023-04-03T13:18:24;99405.34;;;24.57;32.03
74975;BME280;68459;50.836;19.138;2023-04-03T13:21:33;99393.31;;;23.81;31.80
74975;BME280;68459;50.836;19.138;2023-04-03T13:24:39;99389.41;;;26.30;31.02
74975;BME280;68459;50.836;19.138;2023-04-03T13:27:43;99390.16;;;27.83;29.30
74975;BME280;68459;50.836;19.138;2023-04-03T13:30:56;99385.22;;;25.12;27.22
74975;BME280;68459;50.836;19.138;2023-04-03T13:34:09;99396.84;;;20.75;33.25
74975;BME280;68459;50.836;19.138;2023-04-03T13:37:21;99386.38;;;16.80;36.34
74975;BME280;68459;50.836;19.138;2023-04-03T13:40:27;99390.94;;;14.18;39.88
74975;BME280;68459;50.836;19.138;2023-04-03T13:43:42;99382.69;;;16.29;39.64
74975;BME280;68459;50.836;19.138;2023-04-03T13:46:46;99372.19;;;21.15;34.13
74975;BME280;68459;50.836;19.138;2023-04-03T13:50:03;99388.31;;;21.67;29.98
74975;BME280;68459;50.836;19.138;2023-04-03T13:53:17;99390.75;;;18.30;33.67
74975;BME280;68459;50.836;19.138;2023-04-03T13:56:25;99402.03;;;15.41;35.37
74975;BME280;68459;50.836;19.138;2023-04-03T13:59:35;99399.63;;;14.38;37.94
74975;BME280;68459;50.836;19.138;2023-04-03T14:02:39;99396.06;;;16.88;36.91
74975;BME280;68459;50.836;19.138;2023-04-03T14:05:44;99378.19;;;20.92;31.81
74975;BME280;68459;50.836;19.138;2023-04-03T14:08:50;99381.66;;;19.00;31.14
74975;BME280;68459;50.836;19.138;2023-04-03T14:11:57;99388.13;;;16.01;34.08
74975;BME280;68459;50.836;19.138;2023-04-03T14:15:07;99389.63;;;13.72;36.48
74975;BME280;68459;50.836;19.138;2023-04-03T14:18:20;99389.81;;;13.16;38.08
74975;BME280;68459;50.836;19.138;2023-04-03T14:21:24;99385.56;;;14.89;34.71
74975;BME280;68459;50.836;19.138;2023-04-03T14:24:29;99391.78;;;13.45;34.97
74975;BME280;68459;50.836;19.138;2023-04-03T14:27:35;99390.03;;;12.13;36.66
74975;BME280;68459;50.836;19.138;2023-04-03T14:30:41;99390.19;;;12.63;38.48
74975;BME280;68459;50.836;19.138;2023-04-03T14:33:46;99383.22;;;13.48;34.82
74975;BME280;68459;50.836;19.138;2023-04-03T14:36:50;99397.53;;;12.18;36.29
74975;BME280;68459;50.836;19.138;2023-04-03T14:39:57;99390.13;;;10.77;37.70
74975;BME280;68459;50.836;19.138;2023-04-03T14:43:03;99392.38;;;9.51;38.86
74975;BME280;68459;50.836;19.138;2023-04-03T14:46:13;99397.72;;;8.61;38.42
74975;BME280;68459;50.836;19.138;2023-04-03T14:49:22;99390.28;;;8.06;40.13
74975;BME280;68459;50.836;19.138;2023-04-03T14:52:30;99401.38;;;8.17;40.78
74975;BME280;68459;50.836;19.138;2023-04-03T14:55:37;99400.88;;;7.93;40.92
74975;BME280;68459;50.836;19.138;2023-04-03T14:58:41;99397.03;;;7.51;40.87
74975;BME280;68459;50.836;19.138;2023-04-03T15:01:46;99404.41;;;7.20;41.46
74975;BME280;68459;50.836;19.138;2023-04-03T15:04:49;99409.03;;;6.96;41.70
74975;BME280;68459;50.836;19.138;2023-04-03T15:07:58;99411.56;;;6.75;41.43
74975;BME280;68459;50.836;19.138;2023-04-03T15:11:04;99415.31;;;6.43;42.27
74975;BME280;68459;50.836;19.138;2023-04-03T15:14:09;99405.97;;;6.16;41.73
74975;BME280;68459;50.836;19.138;2023-04-03T15:17:16;99411.47;;;5.84;42.12
74975;BME280;68459;50.836;19.138;2023-04-03T15:20:24;99416.69;;;5.77;42.29
74975;BME280;68459;50.836;19.138;2023-04-03T15:23:29;99415.00;;;5.84;42.87
74975;BME280;68459;50.836;19.138;2023-04-03T15:26:34;99406.31;;;6.13;42.15
74975;BME280;68459;50.836;19.138;2023-04-03T15:29:39;99406.09;;;6.23;41.49
74975;BME280;68459;50.836;19.138;2023-04-03T15:32:45;99404.19;;;6.08;41.23
74975;BME280;68459;50.836;19.138;2023-04-03T15:35:50;99418.31;;;5.94;42.42
74975;BME280;68459;50.836;19.138;2023-04-03T15:38:57;99414.84;;;5.78;41.65
74975;BME280;68459;50.836;19.138;2023-04-03T15:42:02;99406.56;;;5.56;42.63
74975;BME280;68459;50.836;19.138;2023-04-03T15:45:09;99409.25;;;5.48;42.66
74975;BME280;68459;50.836;19.138;2023-04-03T15:48:14;99414.31;;;5.35;43.12
74975;BME280;68459;50.836;19.138;2023-04-03T15:51:18;99411.19;;;5.31;43.10
74975;BME280;68459;50.836;19.138;2023-04-03T15:54:22;99423.88;;;5.29;42.58
74975;BME280;68459;50.836;19.138;2023-04-03T15:57:28;99417.72;;;5.13;42.63
74975;BME280;68459;50.836;19.138;2023-04-03T16:00:37;99404.53;;;4.95;43.22
74975;BME280;68459;50.836;19.138;2023-04-03T16:03:42;99405.06;;;4.82;43.18
74975;BME280;68459;50.836;19.138;2023-04-03T16:06:49;99404.09;;;4.75;43.73
74975;BME280;68459;50.836;19.138;2023-04-03T16:09:54;99400.75;;;4.73;43.66
74975;BME280;68459;50.836;19.138;2023-04-03T16:13:00;99411.59;;;4.63;43.59
74975;BME280;68459;50.836;19.138;2023-04-03T16:16:04;99412.78;;;4.61;44.32
74975;BME280;68459;50.836;19.138;2023-04-03T16:19:09;99406.44;;;4.62;43.57
74975;BME280;68459;50.836;19.138;2023-04-03T16:22:13;99408.44;;;4.60;43.12
74975;BME280;68459;50.836;19.138;2023-04-03T16:25:17;99423.78;;;4.58;44.24
74975;BME280;68459;50.836;19.138;2023-04-03T16:28:23;99410.44;;;4.50;44.41
74975;BME280;68459;50.836;19.138;2023-04-03T16:31:27;99412.09;;;4.35;44.36
74975;BME280;68459;50.836;19.138;2023-04-03T16:34:31;99420.06;;;4.26;44.83
74975;BME280;68459;50.836;19.138;2023-04-03T16:37:35;99426.09;;;4.20;44.21